Ana Sayfa
METAR-TAF:

METAR-TAF

Havaalanları :

Regional_Airport

Clinton, Oklahoma, Amerika Birleşik Devletleri

Enlem: 35-32-17N, Boylam: 098-55-17W, yükseklik: 492 m

Güncel hava durumu gözlemi

Rapor saat 11:15 UTC de 25 dakika önce yapıldı.
Rüzgar güneydan 12 kt ve 20 kt'a kadar ani rüzgarlar
Sıcaklık 22°C
Nem 88%
Basınç 1011 hPa
Görüş mesafesi: 11.3 km
8000 ft yükseklikte parçalı çok bulutlu
10000 ft yükseklikte çok bulutlu
gök gürültülü fırtına, yağmur

METAR: KCLK 161115Z AUTO 17012G20KT 7SM TSRA BKN080 OVC100 22/20 A2985 RMK AO2 LTG DSNT ALQS

Saat: 06:40 (11:40 UTC)


TAF: eksik

4.000'den fazla havaalanı için hava durumu gözlemleri ve tahminleri (METAR ve TAF raporları).

Kullanılabilir istasyonlar harita üzerinde sarı ve kırmızı noktalarla gösterilir.

İstasyonun adını görmek için fareyi noktanın üzerinde gezdirin.

Sonrasında hava gözlem ve tahminlerini görmek için tıklayın.

Haritayı değiştirmek için: yaklaştırmak için siyah artı işaretli yeşil düğmeye ve uzaklaştırmak için de eksi işaretli düğmeye hızla tıklayın; bitişik haritalar için yeşil okları kullanın.


METAR-TAF: